sensor_id;sensor_type;location;lat;lon;timestamp;pressure;altitude;pressure_sealevel;temperature;humidity
44103;BME280;29769;42.178;24.742;2023-02-20T00:01:16;99745.09;;;13.48;55.11
44103;BME280;29769;42.178;24.742;2023-02-20T00:04:00;99742.63;;;13.40;55.32
44103;BME280;29769;42.178;24.742;2023-02-20T00:06:45;99758.78;;;13.29;55.67
44103;BME280;29769;42.178;24.742;2023-02-20T00:09:30;99751.09;;;13.20;55.56
44103;BME280;29769;42.178;24.742;2023-02-20T00:12:15;99759.47;;;13.36;55.29
44103;BME280;29769;42.178;24.742;2023-02-20T00:15:00;99767.47;;;13.34;55.26
44103;BME280;29769;42.178;24.742;2023-02-20T00:17:45;99780.72;;;13.31;55.28
44103;BME280;29769;42.178;24.742;2023-02-20T00:20:33;99770.13;;;13.33;55.26
44103;BME280;29769;42.178;24.742;2023-02-20T00:23:20;99755.84;;;13.40;54.90
44103;BME280;29769;42.178;24.742;2023-02-20T00:26:08;99766.38;;;13.42;54.53
44103;BME280;29769;42.178;24.742;2023-02-20T00:28:53;99780.34;;;13.47;54.62
44103;BME280;29769;42.178;24.742;2023-02-20T00:31:38;99783.03;;;13.45;54.46
44103;BME280;29769;42.178;24.742;2023-02-20T00:34:26;99776.28;;;13.33;54.74
44103;BME280;29769;42.178;24.742;2023-02-20T00:37:11;99741.00;;;12.99;55.36
44103;BME280;29769;42.178;24.742;2023-02-20T00:39:56;99769.25;;;12.96;56.45
44103;BME280;29769;42.178;24.742;2023-02-20T00:42:41;99779.13;;;12.89;57.15
44103;BME280;29769;42.178;24.742;2023-02-20T00:45:26;99787.25;;;12.80;57.58
44103;BME280;29769;42.178;24.742;2023-02-20T00:48:13;99788.38;;;12.68;57.91
44103;BME280;29769;42.178;24.742;2023-02-20T00:50:58;99791.25;;;12.58;58.92
44103;BME280;29769;42.178;24.742;2023-02-20T00:53:43;99788.91;;;12.44;59.44
44103;BME280;29769;42.178;24.742;2023-02-20T00:56:28;99790.97;;;12.30;60.55
44103;BME280;29769;42.178;24.742;2023-02-20T00:59:14;99785.09;;;12.17;61.02
44103;BME280;29769;42.178;24.742;2023-02-20T01:01:59;99770.28;;;12.09;61.32
44103;BME280;29769;42.178;24.742;2023-02-20T01:04:44;99761.81;;;11.94;61.69
44103;BME280;29769;42.178;24.742;2023-02-20T01:07:29;99790.06;;;11.88;62.43
44103;BME280;29769;42.178;24.742;2023-02-20T01:10:14;99779.78;;;11.74;63.40
44103;BME280;29769;42.178;24.742;2023-02-20T01:12:59;99786.84;;;11.69;63.66
44103;BME280;29769;42.178;24.742;2023-02-20T01:15:43;99797.56;;;11.60;64.16
44103;BME280;29769;42.178;24.742;2023-02-20T01:18:28;99790.66;;;11.53;64.88
44103;BME280;29769;42.178;24.742;2023-02-20T01:21:13;99783.50;;;11.61;63.91
44103;BME280;29769;42.178;24.742;2023-02-20T01:23:58;99784.00;;;11.83;62.97
44103;BME280;29769;42.178;24.742;2023-02-20T01:26:44;99791.38;;;12.09;61.30
44103;BME280;29769;42.178;24.742;2023-02-20T01:29:29;99786.63;;;12.27;60.11
44103;BME280;29769;42.178;24.742;2023-02-20T01:32:16;99781.31;;;12.30;60.03
44103;BME280;29769;42.178;24.742;2023-02-20T01:35:01;99786.31;;;12.42;59.44
44103;BME280;29769;42.178;24.742;2023-02-20T01:37:46;99796.06;;;12.39;59.55
44103;BME280;29769;42.178;24.742;2023-02-20T01:40:33;99789.94;;;12.37;59.37
44103;BME280;29769;42.178;24.742;2023-02-20T01:43:19;99788.25;;;12.34;59.51
44103;BME280;29769;42.178;24.742;2023-02-20T01:49:14;99788.56;;;12.18;60.41
44103;BME280;29769;42.178;24.742;2023-02-20T01:52:11;99773.00;;;12.07;60.42
44103;BME280;29769;42.178;24.742;2023-02-20T01:55:01;99804.66;;;12.04;60.80
44103;BME280;29769;42.178;24.742;2023-02-20T01:58:00;99801.31;;;11.96;61.16
44103;BME280;29769;42.178;24.742;2023-02-20T02:00:46;99794.97;;;12.06;60.91
44103;BME280;29769;42.178;24.742;2023-02-20T02:03:35;99817.44;;;12.25;59.80
44103;BME280;29769;42.178;24.742;2023-02-20T02:06:21;99827.13;;;12.23;60.51
44103;BME280;29769;42.178;24.742;2023-02-20T02:09:23;99829.94;;;12.16;60.85
44103;BME280;29769;42.178;24.742;2023-02-20T02:12:10;99830.13;;;12.07;61.02
44103;BME280;29769;42.178;24.742;2023-02-20T02:14:55;99830.13;;;12.05;61.15
44103;BME280;29769;42.178;24.742;2023-02-20T02:27:02;99850.91;;;11.19;65.61
44103;BME280;29769;42.178;24.742;2023-02-20T02:50:47;99866.97;;;11.02;68.85
44103;BME280;29769;42.178;24.742;2023-02-20T02:53:32;99874.03;;;10.99;69.62
44103;BME280;29769;42.178;24.742;2023-02-20T02:56:17;99877.38;;;11.10;69.19
44103;BME280;29769;42.178;24.742;2023-02-20T02:59:06;99878.84;;;11.31;68.41
44103;BME280;29769;42.178;24.742;2023-02-20T03:02:02;99812.50;;;11.07;68.13
44103;BME280;29769;42.178;24.742;2023-02-20T03:04:50;99869.06;;;11.39;68.22
44103;BME280;29769;42.178;24.742;2023-02-20T03:07:39;99851.38;;;11.45;68.16
44103;BME280;29769;42.178;24.742;2023-02-20T03:10:25;99869.84;;;11.44;68.43
44103;BME280;29769;42.178;24.742;2023-02-20T03:13:17;99884.84;;;11.39;68.78
44103;BME280;29769;42.178;24.742;2023-02-20T03:16:03;99907.53;;;11.47;68.82
44103;BME280;29769;42.178;24.742;2023-02-20T03:18:50;99882.16;;;11.42;68.06
44103;BME280;29769;42.178;24.742;2023-02-20T03:21:37;99888.81;;;11.66;67.90
44103;BME280;29769;42.178;24.742;2023-02-20T03:24:24;99891.34;;;11.72;67.31
44103;BME280;29769;42.178;24.742;2023-02-20T03:27:10;99875.53;;;11.72;67.42
44103;BME280;29769;42.178;24.742;2023-02-20T03:29:57;99912.47;;;11.69;67.66
44103;BME280;29769;42.178;24.742;2023-02-20T03:32:45;99891.47;;;11.64;67.63
44103;BME280;29769;42.178;24.742;2023-02-20T03:35:52;99907.41;;;11.56;68.20
44103;BME280;29769;42.178;24.742;2023-02-20T03:39:06;99923.50;;;11.37;69.54
44103;BME280;29769;42.178;24.742;2023-02-20T03:42:12;99920.38;;;11.10;71.47
44103;BME280;29769;42.178;24.742;2023-02-20T03:45:26;99930.22;;;10.95;72.83
44103;BME280;29769;42.178;24.742;2023-02-20T03:48:21;99938.28;;;10.84;74.06
44103;BME280;29769;42.178;24.742;2023-02-20T03:51:08;99946.25;;;10.77;74.69
44103;BME280;29769;42.178;24.742;2023-02-20T03:54:02;99956.81;;;10.75;75.20
44103;BME280;29769;42.178;24.742;2023-02-20T03:56:55;99956.88;;;10.70;76.02
44103;BME280;29769;42.178;24.742;2023-02-20T04:00:08;99959.59;;;10.58;77.32
44103;BME280;29769;42.178;24.742;2023-02-20T04:03:11;99973.69;;;10.57;77.93
44103;BME280;29769;42.178;24.742;2023-02-20T04:06:03;99980.75;;;10.49;78.61
44103;BME280;29769;42.178;24.742;2023-02-20T04:08:57;99974.66;;;10.47;79.38
44103;BME280;29769;42.178;24.742;2023-02-20T04:11:49;99971.19;;;10.42;79.88
44103;BME280;29769;42.178;24.742;2023-02-20T04:14:36;99981.81;;;10.33;80.64
44103;BME280;29769;42.178;24.742;2023-02-20T04:17:31;99972.34;;;10.17;82.26
44103;BME280;29769;42.178;24.742;2023-02-20T04:20:19;99967.97;;;10.11;83.04
44103;BME280;29769;42.178;24.742;2023-02-20T04:23:20;99961.81;;;10.15;82.87
44103;BME280;29769;42.178;24.742;2023-02-20T04:26:17;99944.25;;;10.19;83.02
44103;BME280;29769;42.178;24.742;2023-02-20T04:29:05;99953.88;;;10.20;83.40
44103;BME280;29769;42.178;24.742;2023-02-20T04:31:51;99959.97;;;10.27;82.50
44103;BME280;29769;42.178;24.742;2023-02-20T04:34:37;99956.38;;;10.32;81.30
44103;BME280;29769;42.178;24.742;2023-02-20T04:37:24;99935.94;;;10.60;77.32
44103;BME280;29769;42.178;24.742;2023-02-20T04:40:13;99918.34;;;10.65;74.87
44103;BME280;29769;42.178;24.742;2023-02-20T04:42:58;99938.28;;;10.84;73.62
44103;BME280;29769;42.178;24.742;2023-02-20T04:45:43;99943.56;;;10.83;73.09
44103;BME280;29769;42.178;24.742;2023-02-20T04:48:29;99944.59;;;10.71;73.63
44103;BME280;29769;42.178;24.742;2023-02-20T04:51:14;99933.41;;;10.52;75.53
44103;BME280;29769;42.178;24.742;2023-02-20T04:53:59;99932.56;;;10.46;76.13
44103;BME280;29769;42.178;24.742;2023-02-20T04:56:44;99932.47;;;10.58;74.22
44103;BME280;29769;42.178;24.742;2023-02-20T04:59:29;99930.47;;;10.77;71.28
44103;BME280;29769;42.178;24.742;2023-02-20T05:02:14;99941.81;;;10.82;69.97
44103;BME280;29769;42.178;24.742;2023-02-20T05:04:59;99928.81;;;10.69;69.45
44103;BME280;29769;42.178;24.742;2023-02-20T05:07:44;99938.47;;;10.67;70.64
44103;BME280;29769;42.178;24.742;2023-02-20T05:10:31;99947.28;;;10.63;70.62
44103;BME280;29769;42.178;24.742;2023-02-20T05:13:16;99973.59;;;10.63;70.38
44103;BME280;29769;42.178;24.742;2023-02-20T05:16:01;99922.88;;;10.49;71.32
44103;BME280;29769;42.178;24.742;2023-02-20T05:18:46;99940.41;;;10.53;71.04
44103;BME280;29769;42.178;24.742;2023-02-20T05:21:31;99964.22;;;10.40;71.53
44103;BME280;29769;42.178;24.742;2023-02-20T05:24:34;99966.91;;;10.32;72.23
44103;BME280;29769;42.178;24.742;2023-02-20T05:27:21;99980.09;;;10.29;72.76
44103;BME280;29769;42.178;24.742;2023-02-20T05:30:07;99995.00;;;10.29;72.61
44103;BME280;29769;42.178;24.742;2023-02-20T05:32:52;100003.63;;;10.43;71.67
44103;BME280;29769;42.178;24.742;2023-02-20T05:35:37;100024.53;;;10.55;70.86
44103;BME280;29769;42.178;24.742;2023-02-20T05:38:24;99985.91;;;10.60;69.49
44103;BME280;29769;42.178;24.742;2023-02-20T05:41:09;100038.13;;;10.95;68.48
44103;BME280;29769;42.178;24.742;2023-02-20T05:43:53;100021.34;;;11.08;67.61
44103;BME280;29769;42.178;24.742;2023-02-20T05:46:41;100029.94;;;11.21;66.58
44103;BME280;29769;42.178;24.742;2023-02-20T05:49:26;100045.59;;;11.34;65.69
44103;BME280;29769;42.178;24.742;2023-02-20T05:52:11;100043.72;;;11.41;65.48
44103;BME280;29769;42.178;24.742;2023-02-20T05:54:56;100060.25;;;11.53;64.77
44103;BME280;29769;42.178;24.742;2023-02-20T05:57:41;100041.75;;;11.58;64.45
44103;BME280;29769;42.178;24.742;2023-02-20T06:00:26;100046.91;;;11.64;63.83
44103;BME280;29769;42.178;24.742;2023-02-20T06:03:13;100062.63;;;11.73;63.41
44103;BME280;29769;42.178;24.742;2023-02-20T06:05:58;100043.97;;;11.88;62.22
44103;BME280;29769;42.178;24.742;2023-02-20T06:08:43;100043.84;;;11.96;61.93
44103;BME280;29769;42.178;24.742;2023-02-20T06:11:28;100046.38;;;12.03;60.98
44103;BME280;29769;42.178;24.742;2023-02-20T06:14:14;100038.34;;;12.11;59.81
44103;BME280;29769;42.178;24.742;2023-02-20T06:16:59;100064.56;;;12.22;58.63
44103;BME280;29769;42.178;24.742;2023-02-20T06:19:44;100072.91;;;12.48;58.01
44103;BME280;29769;42.178;24.742;2023-02-20T06:22:29;100065.63;;;12.62;56.77
44103;BME280;29769;42.178;24.742;2023-02-20T06:25:14;100098.75;;;12.78;55.52
44103;BME280;29769;42.178;24.742;2023-02-20T06:27:59;100078.25;;;12.92;54.09
44103;BME280;29769;42.178;24.742;2023-02-20T06:30:44;100098.19;;;13.09;53.49
44103;BME280;29769;42.178;24.742;2023-02-20T06:33:29;100080.19;;;13.30;52.73
44103;BME280;29769;42.178;24.742;2023-02-20T06:36:26;100117.94;;;13.35;52.26
44103;BME280;29769;42.178;24.742;2023-02-20T06:39:12;100122.75;;;13.58;51.61
44103;BME280;29769;42.178;24.742;2023-02-20T06:41:58;100117.06;;;13.78;50.28
44103;BME280;29769;42.178;24.742;2023-02-20T06:44:42;100091.28;;;13.89;49.98
44103;BME280;29769;42.178;24.742;2023-02-20T06:47:27;100114.34;;;13.81;50.60
44103;BME280;29769;42.178;24.742;2023-02-20T06:50:12;100102.09;;;13.77;50.57
44103;BME280;29769;42.178;24.742;2023-02-20T06:52:57;100091.00;;;14.01;50.21
44103;BME280;29769;42.178;24.742;2023-02-20T06:55:42;100060.53;;;13.84;49.83
44103;BME280;29769;42.178;24.742;2023-02-20T06:58:26;100070.69;;;14.03;49.51
44103;BME280;29769;42.178;24.742;2023-02-20T07:01:11;100087.91;;;14.58;48.60
44103;BME280;29769;42.178;24.742;2023-02-20T07:03:57;100055.50;;;14.48;47.35
44103;BME280;29769;42.178;24.742;2023-02-20T07:06:43;100069.19;;;14.27;48.23
44103;BME280;29769;42.178;24.742;2023-02-20T07:09:27;100057.69;;;14.65;47.13
44103;BME280;29769;42.178;24.742;2023-02-20T07:12:12;100071.66;;;14.36;47.16
44103;BME280;29769;42.178;24.742;2023-02-20T07:14:57;100045.56;;;14.56;46.71
44103;BME280;29769;42.178;24.742;2023-02-20T07:17:42;100039.25;;;14.62;46.36
44103;BME280;29769;42.178;24.742;2023-02-20T07:20:27;100031.88;;;14.73;45.75
44103;BME280;29769;42.178;24.742;2023-02-20T07:23:12;100025.41;;;14.85;45.13
44103;BME280;29769;42.178;24.742;2023-02-20T07:25:57;100067.06;;;14.78;44.77
44103;BME280;29769;42.178;24.742;2023-02-20T07:28:43;99981.16;;;14.88;44.31
44103;BME280;29769;42.178;24.742;2023-02-20T07:31:28;100030.31;;;14.66;44.11
44103;BME280;29769;42.178;24.742;2023-02-20T07:34:13;100057.66;;;14.66;44.47
44103;BME280;29769;42.178;24.742;2023-02-20T07:36:59;100048.38;;;14.84;43.68
44103;BME280;29769;42.178;24.742;2023-02-20T07:39:44;100072.59;;;15.01;43.42
44103;BME280;29769;42.178;24.742;2023-02-20T07:42:28;100006.84;;;14.85;42.61
44103;BME280;29769;42.178;24.742;2023-02-20T07:45:24;100058.59;;;14.98;41.99
44103;BME280;29769;42.178;24.742;2023-02-20T07:48:09;100040.31;;;15.20;41.46
44103;BME280;29769;42.178;24.742;2023-02-20T07:50:54;100036.75;;;15.21;41.25
44103;BME280;29769;42.178;24.742;2023-02-20T07:53:40;100040.75;;;15.94;40.25
44103;BME280;29769;42.178;24.742;2023-02-20T07:56:24;100055.06;;;15.28;40.36
44103;BME280;29769;42.178;24.742;2023-02-20T07:59:09;100087.31;;;15.44;40.37
44103;BME280;29769;42.178;24.742;2023-02-20T08:01:54;100010.56;;;15.69;39.13
44103;BME280;29769;42.178;24.742;2023-02-20T08:04:39;100076.34;;;15.57;39.42
44103;BME280;29769;42.178;24.742;2023-02-20T08:07:24;100065.53;;;15.93;39.03
44103;BME280;29769;42.178;24.742;2023-02-20T08:10:09;100051.72;;;15.82;38.33
44103;BME280;29769;42.178;24.742;2023-02-20T08:12:54;100064.34;;;15.44;38.75
44103;BME280;29769;42.178;24.742;2023-02-20T08:15:39;100082.84;;;16.32;37.72
44103;BME280;29769;42.178;24.742;2023-02-20T08:18:25;100082.75;;;16.88;36.11
44103;BME280;29769;42.178;24.742;2023-02-20T08:21:10;100086.97;;;17.18;35.35
44103;BME280;29769;42.178;24.742;2023-02-20T08:23:55;100075.53;;;16.67;35.16
44103;BME280;29769;42.178;24.742;2023-02-20T08:26:46;100078.19;;;16.92;34.83
44103;BME280;29769;42.178;24.742;2023-02-20T08:29:31;100027.81;;;16.11;35.79
44103;BME280;29769;42.178;24.742;2023-02-20T08:32:16;100063.75;;;16.48;35.95
44103;BME280;29769;42.178;24.742;2023-02-20T08:35:01;100051.88;;;17.09;34.82
44103;BME280;29769;42.178;24.742;2023-02-20T08:37:46;100057.91;;;16.64;35.17
44103;BME280;29769;42.178;24.742;2023-02-20T08:40:30;100083.53;;;17.16;34.38
44103;BME280;29769;42.178;24.742;2023-02-20T08:43:15;100079.00;;;17.18;34.06
44103;BME280;29769;42.178;24.742;2023-02-20T08:46:00;100037.00;;;17.28;33.73
44103;BME280;29769;42.178;24.742;2023-02-20T08:48:45;100063.22;;;17.14;32.64
44103;BME280;29769;42.178;24.742;2023-02-20T08:51:30;99979.78;;;17.18;32.38
44103;BME280;29769;42.178;24.742;2023-02-20T08:54:15;100009.69;;;17.00;32.41
44103;BME280;29769;42.178;24.742;2023-02-20T08:57:00;100021.53;;;17.39;31.97
44103;BME280;29769;42.178;24.742;2023-02-20T08:59:45;99991.81;;;17.51;30.97
44103;BME280;29769;42.178;24.742;2023-02-20T09:02:30;99993.03;;;17.66;31.08
44103;BME280;29769;42.178;24.742;2023-02-20T09:05:15;100028.13;;;17.97;30.48
44103;BME280;29769;42.178;24.742;2023-02-20T09:08:00;100025.72;;;18.13;29.08
44103;BME280;29769;42.178;24.742;2023-02-20T09:10:45;100009.44;;;18.20;28.59
44103;BME280;29769;42.178;24.742;2023-02-20T09:13:30;100012.69;;;18.27;28.32
44103;BME280;29769;42.178;24.742;2023-02-20T09:16:19;100044.97;;;18.41;28.06
44103;BME280;29769;42.178;24.742;2023-02-20T09:19:05;99994.97;;;18.06;27.41
44103;BME280;29769;42.178;24.742;2023-02-20T09:21:50;100000.53;;;17.78;27.83
44103;BME280;29769;42.178;24.742;2023-02-20T09:24:35;100038.22;;;17.89;27.96
44103;BME280;29769;42.178;24.742;2023-02-20T09:27:20;100077.13;;;18.15;27.67
44103;BME280;29769;42.178;24.742;2023-02-20T09:30:05;100032.81;;;18.76;26.94
44103;BME280;29769;42.178;24.742;2023-02-20T09:32:50;100039.03;;;18.56;25.56
44103;BME280;29769;42.178;24.742;2023-02-20T09:35:35;100010.44;;;17.96;26.27
44103;BME280;29769;42.178;24.742;2023-02-20T09:38:21;100069.66;;;18.45;26.41
44103;BME280;29769;42.178;24.742;2023-02-20T09:41:18;100092.69;;;19.09;25.26
44103;BME280;29769;42.178;24.742;2023-02-20T09:44:24;100077.66;;;19.27;24.63
44103;BME280;29769;42.178;24.742;2023-02-20T09:50:26;100083.69;;;19.90;23.68
44103;BME280;29769;42.178;24.742;2023-02-20T09:56:20;100045.41;;;18.73;23.84
44103;BME280;29769;42.178;24.742;2023-02-20T10:02:26;100060.09;;;19.43;23.37
44103;BME280;29769;42.178;24.742;2023-02-20T10:05:18;100042.25;;;20.00;22.61
44103;BME280;29769;42.178;24.742;2023-02-20T10:08:09;100089.44;;;19.43;23.16
44103;BME280;29769;42.178;24.742;2023-02-20T10:10:58;100078.78;;;19.42;22.28
44103;BME280;29769;42.178;24.742;2023-02-20T10:14:20;100038.59;;;19.46;21.57
44103;BME280;29769;42.178;24.742;2023-02-20T10:26:38;100033.34;;;20.18;21.58
44103;BME280;29769;42.178;24.742;2023-02-20T10:29:26;100069.53;;;20.78;21.32
44103;BME280;29769;42.178;24.742;2023-02-20T10:32:20;100070.75;;;21.40;20.75
44103;BME280;29769;42.178;24.742;2023-02-20T10:35:10;100045.38;;;21.32;20.10
44103;BME280;29769;42.178;24.742;2023-02-20T10:38:02;100033.28;;;21.24;20.33
44103;BME280;29769;42.178;24.742;2023-02-20T10:44:20;100019.00;;;20.74;20.47
44103;BME280;29769;42.178;24.742;2023-02-20T10:50:26;100031.47;;;20.91;20.36
44103;BME280;29769;42.178;24.742;2023-02-20T10:53:21;100010.34;;;20.52;20.77
44103;BME280;29769;42.178;24.742;2023-02-20T11:02:06;99959.88;;;19.36;21.54
44103;BME280;29769;42.178;24.742;2023-02-20T11:05:08;100029.94;;;19.79;21.41
44103;BME280;29769;42.178;24.742;2023-02-20T11:07:54;100011.00;;;20.21;20.79
44103;BME280;29769;42.178;24.742;2023-02-20T11:10:39;100003.25;;;19.97;20.96
44103;BME280;29769;42.178;24.742;2023-02-20T11:13:24;100000.25;;;20.04;20.82
44103;BME280;29769;42.178;24.742;2023-02-20T11:16:23;99999.78;;;20.13;20.53
44103;BME280;29769;42.178;24.742;2023-02-20T11:19:20;99999.88;;;20.47;20.26
44103;BME280;29769;42.178;24.742;2023-02-20T11:22:06;99994.00;;;19.86;20.33
44103;BME280;29769;42.178;24.742;2023-02-20T11:24:51;100026.53;;;20.66;20.32
44103;BME280;29769;42.178;24.742;2023-02-20T11:27:36;100014.69;;;21.21;19.21
44103;BME280;29769;42.178;24.742;2023-02-20T11:33:20;100026.75;;;22.55;18.64
44103;BME280;29769;42.178;24.742;2023-02-20T11:36:11;100010.66;;;22.26;18.74
44103;BME280;29769;42.178;24.742;2023-02-20T11:39:03;100016.69;;;21.66;18.89
44103;BME280;29769;42.178;24.742;2023-02-20T11:42:15;100025.13;;;21.59;18.80
44103;BME280;29769;42.178;24.742;2023-02-20T11:48:07;100024.00;;;22.11;18.80
44103;BME280;29769;42.178;24.742;2023-02-20T11:50:53;99993.66;;;20.98;19.51
44103;BME280;29769;42.178;24.742;2023-02-20T11:53:37;100003.97;;;20.89;19.80
44103;BME280;29769;42.178;24.742;2023-02-20T11:56:22;99999.78;;;20.83;19.92
44103;BME280;29769;42.178;24.742;2023-02-20T11:59:41;100034.03;;;21.44;20.08
44103;BME280;29769;42.178;24.742;2023-02-20T12:02:27;99958.13;;;21.45;19.97
44103;BME280;29769;42.178;24.742;2023-02-20T12:05:14;100028.75;;;21.42;20.08
44103;BME280;29769;42.178;24.742;2023-02-20T12:07:59;99998.78;;;21.67;19.38
44103;BME280;29769;42.178;24.742;2023-02-20T12:10:46;100009.16;;;22.36;19.55
44103;BME280;29769;42.178;24.742;2023-02-20T12:13:37;99987.81;;;20.90;19.73
44103;BME280;29769;42.178;24.742;2023-02-20T12:19:57;100023.44;;;21.25;20.09
44103;BME280;29769;42.178;24.742;2023-02-20T12:29:04;99950.91;;;21.14;19.96
44103;BME280;29769;42.178;24.742;2023-02-20T12:35:31;100023.25;;;22.39;18.99
44103;BME280;29769;42.178;24.742;2023-02-20T12:47:30;100023.44;;;21.25;19.69
44103;BME280;29769;42.178;24.742;2023-02-20T12:50:26;99982.81;;;21.50;20.10
44103;BME280;29769;42.178;24.742;2023-02-20T12:53:18;100013.09;;;22.14;19.59
44103;BME280;29769;42.178;24.742;2023-02-20T13:00:00;100019.19;;;22.32;19.48
44103;BME280;29769;42.178;24.742;2023-02-20T13:02:48;100018.06;;;22.36;19.76
44103;BME280;29769;42.178;24.742;2023-02-20T13:05:34;99993.44;;;21.51;20.13
44103;BME280;29769;42.178;24.742;2023-02-20T13:11:15;100003.44;;;20.48;20.79
44103;BME280;29769;42.178;24.742;2023-02-20T13:14:16;100000.56;;;20.68;20.62
44103;BME280;29769;42.178;24.742;2023-02-20T13:17:16;100015.22;;;20.61;20.54
44103;BME280;29769;42.178;24.742;2023-02-20T13:23:04;100019.34;;;20.32;21.36
44103;BME280;29769;42.178;24.742;2023-02-20T13:25:51;100019.88;;;20.21;21.39
44103;BME280;29769;42.178;24.742;2023-02-20T13:28:42;99973.94;;;20.32;20.97
44103;BME280;29769;42.178;24.742;2023-02-20T13:37:04;100017.66;;;20.48;20.52
44103;BME280;29769;42.178;24.742;2023-02-20T13:46:12;100045.03;;;20.53;20.55
44103;BME280;29769;42.178;24.742;2023-02-20T13:48:58;100043.97;;;20.56;20.45
44103;BME280;29769;42.178;24.742;2023-02-20T13:51:43;100047.50;;;20.91;20.01
44103;BME280;29769;42.178;24.742;2023-02-20T13:54:28;100046.97;;;21.18;19.27
44103;BME280;29769;42.178;24.742;2023-02-20T13:57:17;100022.59;;;21.07;19.39
44103;BME280;29769;42.178;24.742;2023-02-20T14:03:17;100047.44;;;20.92;19.33
44103;BME280;29769;42.178;24.742;2023-02-20T14:08:48;100038.47;;;20.23;20.20
44103;BME280;29769;42.178;24.742;2023-02-20T14:11:35;100034.69;;;19.72;20.24
44103;BME280;29769;42.178;24.742;2023-02-20T14:14:31;100025.50;;;19.40;20.38
44103;BME280;29769;42.178;24.742;2023-02-20T14:17:19;100044.47;;;19.34;20.61
44103;BME280;29769;42.178;24.742;2023-02-20T14:20:18;100038.59;;;19.65;20.74
44103;BME280;29769;42.178;24.742;2023-02-20T14:25:57;100052.00;;;19.64;20.42
44103;BME280;29769;42.178;24.742;2023-02-20T14:28:45;100051.81;;;19.29;21.05
44103;BME280;29769;42.178;24.742;2023-02-20T14:31:35;100046.28;;;19.14;22.52
44103;BME280;29769;42.178;24.742;2023-02-20T14:34:47;100026.91;;;19.10;22.07
44103;BME280;29769;42.178;24.742;2023-02-20T14:37:43;100036.59;;;19.31;22.51
44103;BME280;29769;42.178;24.742;2023-02-20T14:40:38;100031.88;;;19.18;22.90
44103;BME280;29769;42.178;24.742;2023-02-20T14:43:26;100033.97;;;19.11;21.48
44103;BME280;29769;42.178;24.742;2023-02-20T14:46:22;100021.03;;;19.02;21.22
44103;BME280;29769;42.178;24.742;2023-02-20T14:49:15;100039.03;;;18.35;23.68
44103;BME280;29769;42.178;24.742;2023-02-20T14:52:10;100049.88;;;18.30;22.13
44103;BME280;29769;42.178;24.742;2023-02-20T14:55:04;100076.00;;;18.42;22.98
44103;BME280;29769;42.178;24.742;2023-02-20T14:57:50;100080.13;;;18.49;23.38
44103;BME280;29769;42.178;24.742;2023-02-20T15:00:37;100064.13;;;18.49;24.15
44103;BME280;29769;42.178;24.742;2023-02-20T15:03:25;100080.25;;;18.46;24.25
44103;BME280;29769;42.178;24.742;2023-02-20T15:06:13;100082.22;;;18.21;21.27
44103;BME280;29769;42.178;24.742;2023-02-20T15:09:02;100076.56;;;18.29;20.90
44103;BME280;29769;42.178;24.742;2023-02-20T15:11:52;100080.97;;;18.08;22.23
44103;BME280;29769;42.178;24.742;2023-02-20T15:14:40;100093.25;;;17.89;22.79
44103;BME280;29769;42.178;24.742;2023-02-20T15:17:33;100097.66;;;17.66;23.33
44103;BME280;29769;42.178;24.742;2023-02-20T15:20:34;100089.34;;;17.51;24.03
44103;BME280;29769;42.178;24.742;2023-02-20T15:26:30;100082.81;;;17.11;24.49
44103;BME280;29769;42.178;24.742;2023-02-20T15:29:24;100108.72;;;16.80;22.62
44103;BME280;29769;42.178;24.742;2023-02-20T15:32:20;100101.53;;;16.56;22.32
44103;BME280;29769;42.178;24.742;2023-02-20T15:35:13;100104.22;;;16.28;23.11
44103;BME280;29769;42.178;24.742;2023-02-20T15:38:00;100115.03;;;15.94;24.08
44103;BME280;29769;42.178;24.742;2023-02-20T15:40:46;100128.28;;;15.65;24.69
44103;BME280;29769;42.178;24.742;2023-02-20T15:43:31;100123.75;;;15.36;25.45
44103;BME280;29769;42.178;24.742;2023-02-20T15:46:16;100130.38;;;15.21;26.27
44103;BME280;29769;42.178;24.742;2023-02-20T15:49:02;100131.75;;;15.02;26.71
44103;BME280;29769;42.178;24.742;2023-02-20T15:51:48;100142.19;;;14.74;27.37
44103;BME280;29769;42.178;24.742;2023-02-20T15:54:33;100143.63;;;14.52;27.73
44103;BME280;29769;42.178;24.742;2023-02-20T15:57:18;100151.13;;;14.32;28.16
44103;BME280;29769;42.178;24.742;2023-02-20T16:00:03;100135.19;;;13.96;28.81
44103;BME280;29769;42.178;24.742;2023-02-20T16:02:48;100159.19;;;13.86;29.17
44103;BME280;29769;42.178;24.742;2023-02-20T16:05:32;100164.06;;;13.64;29.69
44103;BME280;29769;42.178;24.742;2023-02-20T16:08:17;100167.94;;;13.46;29.71
44103;BME280;29769;42.178;24.742;2023-02-20T16:11:04;100180.59;;;13.30;29.67
44103;BME280;29769;42.178;24.742;2023-02-20T16:13:54;100187.97;;;13.09;29.40
44103;BME280;29769;42.178;24.742;2023-02-20T16:16:44;100201.41;;;12.97;29.38
44103;BME280;29769;42.178;24.742;2023-02-20T16:19:30;100207.69;;;12.89;29.57
44103;BME280;29769;42.178;24.742;2023-02-20T16:22:15;100203.53;;;12.75;29.74
44103;BME280;29769;42.178;24.742;2023-02-20T16:24:59;100205.28;;;12.76;29.78
44103;BME280;29769;42.178;24.742;2023-02-20T16:27:45;100201.13;;;12.60;30.12
44103;BME280;29769;42.178;24.742;2023-02-20T16:30:35;100209.31;;;12.43;30.51
44103;BME280;29769;42.178;24.742;2023-02-20T16:33:22;100212.13;;;12.29;31.13
44103;BME280;29769;42.178;24.742;2023-02-20T16:36:07;100224.50;;;12.24;31.87
44103;BME280;29769;42.178;24.742;2023-02-20T16:38:52;100231.56;;;12.22;32.50